createdAt,value
2022-12-07T00:01:06.491Z,20.10
2022-12-07T00:02:09.075Z,18.48
2022-12-07T00:03:11.459Z,20.05
2022-12-07T00:04:16.425Z,23.15
2022-12-07T00:05:18.710Z,19.60
2022-12-07T00:06:21.866Z,21.63
2022-12-07T00:07:27.780Z,20.10
2022-12-07T00:08:31.568Z,19.27
2022-12-07T00:09:34.078Z,21.38
2022-12-07T00:10:36.364Z,20.15
2022-12-07T00:11:38.784Z,17.38
2022-12-07T00:12:41.153Z,20.67
2022-12-07T00:13:44.574Z,22.17
2022-12-07T00:14:47.956Z,20.50
2022-12-07T00:15:50.234Z,20.27
2022-12-07T00:16:53.711Z,21.75
2022-12-07T00:17:56.433Z,20.77
2022-12-07T00:18:59.416Z,18.20
2022-12-07T00:20:04.827Z,18.42
2022-12-07T00:21:16.168Z,20.38
2022-12-07T00:22:18.454Z,20.63
2022-12-07T00:23:20.775Z,21.17
2022-12-07T00:24:23.066Z,21.67
2022-12-07T00:25:25.760Z,20.65
2022-12-07T00:26:32.026Z,18.90
2022-12-07T00:27:36.784Z,22.30
2022-12-07T00:28:39.473Z,20.63
2022-12-07T00:29:41.845Z,21.52
2022-12-07T00:30:44.149Z,19.05
2022-12-07T00:31:46.653Z,22.25
2022-12-07T00:32:51.407Z,20.80
2022-12-07T00:33:54.218Z,21.17
2022-12-07T00:34:56.583Z,22.45
2022-12-07T00:36:00.385Z,19.60
2022-12-07T00:37:02.956Z,20.85
2022-12-07T00:38:05.180Z,22.02
2022-12-07T00:39:07.736Z,21.05
2022-12-07T00:40:11.081Z,21.45
2022-12-07T00:41:22.339Z,20.92
2022-12-07T00:42:24.598Z,19.27
2022-12-07T00:43:27.696Z,21.38
2022-12-07T00:44:30.011Z,21.25
2022-12-07T00:45:32.414Z,19.00
2022-12-07T00:46:34.860Z,20.15
2022-12-07T00:47:37.239Z,21.75
2022-12-07T00:48:39.963Z,20.17
2022-12-07T00:49:42.631Z,19.92
2022-12-07T00:50:45.232Z,20.77
2022-12-07T00:51:49.985Z,21.40
2022-12-07T00:52:52.444Z,22.35
2022-12-07T00:53:54.826Z,20.13
2022-12-07T00:54:57.197Z,22.50
2022-12-07T00:55:59.534Z,21.23
2022-12-07T00:57:01.858Z,22.83
2022-12-07T00:58:04.878Z,21.23
2022-12-07T00:59:07.386Z,22.75
2022-12-07T01:00:10.240Z,24.60
2022-12-07T01:01:12.930Z,21.42
2022-12-07T01:02:15.751Z,19.92
2022-12-07T01:03:19.077Z,21.77
2022-12-07T01:04:21.482Z,23.55
2022-12-07T01:05:24.047Z,23.52
2022-12-07T01:06:26.667Z,23.35
2022-12-07T01:07:29.020Z,23.02
2022-12-07T01:08:31.597Z,20.52
2022-12-07T01:09:34.039Z,21.88
2022-12-07T01:10:36.498Z,21.00
2022-12-07T01:11:38.875Z,22.17
2022-12-07T01:12:42.201Z,20.30
2022-12-07T01:13:45.060Z,19.98
2022-12-07T01:14:47.489Z,21.77
2022-12-07T01:15:49.697Z,19.55
2022-12-07T01:16:52.551Z,20.80
2022-12-07T01:17:55.864Z,20.02
2022-12-07T01:18:59.462Z,20.55
2022-12-07T01:20:02.684Z,21.80
2022-12-07T01:21:05.658Z,20.88
2022-12-07T01:22:08.030Z,21.88
2022-12-07T01:23:10.299Z,20.65
2022-12-07T01:24:12.856Z,21.05
2022-12-07T01:25:15.150Z,22.63
2022-12-07T01:26:20.813Z,19.27
2022-12-07T01:27:23.572Z,22.52
2022-12-07T01:28:26.524Z,20.13
2022-12-07T01:29:28.954Z,20.67
2022-12-07T01:30:31.372Z,20.00
2022-12-07T01:31:34.075Z,18.67
2022-12-07T01:32:36.489Z,20.40
2022-12-07T01:33:40.345Z,17.38
2022-12-07T01:34:42.767Z,18.27
2022-12-07T01:35:45.085Z,20.42
2022-12-07T01:36:47.315Z,18.75
2022-12-07T01:37:49.739Z,18.92
2022-12-07T01:38:57.700Z,22.15
2022-12-07T01:40:00.378Z,16.80
2022-12-07T01:41:04.619Z,19.30
2022-12-07T01:42:09.435Z,18.88
2022-12-07T01:43:21.719Z,19.38
2022-12-07T01:44:34.021Z,18.17
2022-12-07T01:45:42.282Z,20.42
2022-12-07T01:46:49.157Z,17.98
2022-12-07T01:47:57.748Z,18.27
2022-12-07T01:49:00.834Z,17.90
2022-12-07T01:50:03.983Z,18.33
2022-12-07T01:51:11.759Z,19.38
2022-12-07T01:52:24.128Z,18.13
2022-12-07T01:53:29.142Z,18.33
2022-12-07T01:54:32.400Z,21.33
2022-12-07T01:55:36.606Z,22.90
2022-12-07T01:57:49.946Z,18.95
2022-12-07T01:58:54.103Z,17.02
2022-12-07T01:59:58.058Z,18.58
2022-12-07T02:01:15.111Z,19.92
2022-12-07T02:02:23.013Z,25.10
2022-12-07T02:03:42.950Z,21.60
2022-12-07T02:04:45.353Z,20.83
2022-12-07T02:05:49.255Z,20.23
2022-12-07T02:06:52.906Z,17.73
2022-12-07T02:07:58.022Z,22.83
2022-12-07T02:09:00.394Z,25.15
2022-12-07T02:10:23.156Z,19.20
2022-12-07T02:11:25.489Z,19.67
2022-12-07T02:12:27.857Z,17.00
2022-12-07T02:13:34.117Z,16.92
2022-12-07T02:14:37.171Z,21.40
2022-12-07T02:16:17.639Z,21.30
2022-12-07T02:17:19.994Z,18.63
2022-12-07T02:18:44.170Z,18.13
2022-12-07T02:19:52.390Z,19.63
2022-12-07T02:21:27.962Z,22.02
2022-12-07T02:22:55.985Z,19.23
2022-12-07T02:24:43.187Z,16.52
2022-12-07T02:26:42.870Z,17.23
2022-12-07T02:27:57.920Z,17.13
2022-12-07T02:29:15.078Z,19.95
2022-12-07T02:30:32.411Z,18.98
2022-12-07T02:31:35.046Z,19.58
2022-12-07T02:32:57.007Z,18.98
2022-12-07T02:34:10.117Z,19.92
2022-12-07T02:35:18.457Z,19.45
2022-12-07T02:36:28.379Z,19.38
2022-12-07T02:37:51.952Z,18.63
2022-12-07T02:39:12.879Z,19.10
2022-12-07T02:40:20.809Z,22.48
2022-12-07T02:41:39.325Z,26.73
2022-12-07T02:42:50.614Z,20.70
2022-12-07T02:44:00.718Z,20.73
2022-12-07T02:45:04.011Z,22.48
2022-12-07T02:46:10.723Z,21.95
2022-12-07T02:47:17.118Z,20.40
2022-12-07T02:48:21.910Z,19.80
2022-12-07T02:49:25.841Z,21.50
2022-12-07T02:50:29.583Z,20.23
2022-12-07T02:51:33.277Z,22.33
2022-12-07T02:52:35.826Z,22.58
2022-12-07T02:53:43.758Z,19.30
2022-12-07T02:54:46.035Z,20.70
2022-12-07T02:55:48.551Z,24.25
2022-12-07T02:57:01.834Z,21.75
2022-12-07T02:58:13.146Z,26.45
2022-12-07T02:59:30.756Z,22.48
2022-12-07T03:00:43.778Z,23.67
2022-12-07T03:02:04.272Z,26.40
2022-12-07T03:03:12.691Z,23.98
2022-12-07T03:04:42.316Z,25.27
2022-12-07T03:07:12.876Z,18.83
2022-12-07T03:08:46.228Z,20.70
2022-12-07T03:10:01.244Z,19.98
2022-12-07T03:11:17.558Z,23.85
2022-12-07T03:12:40.546Z,23.33
2022-12-07T03:13:54.372Z,21.95
2022-12-07T03:15:15.780Z,23.35
2022-12-07T03:16:38.924Z,24.60
2022-12-07T03:17:43.337Z,27.05
2022-12-07T03:18:51.946Z,25.00
2022-12-07T03:19:58.708Z,23.92
2022-12-07T03:21:06.760Z,24.83
2022-12-07T03:22:11.932Z,25.23
2022-12-07T03:23:16.815Z,28.02
2022-12-07T03:24:23.159Z,25.40
2022-12-07T03:25:27.182Z,23.77
2022-12-07T03:26:37.082Z,24.88
2022-12-07T03:27:57.173Z,24.00
2022-12-07T03:29:06.010Z,25.58
2022-12-07T03:30:16.268Z,23.90
2022-12-07T03:31:40.209Z,24.55
2022-12-07T03:32:55.946Z,24.13
2022-12-07T03:34:26.179Z,24.30
2022-12-07T03:35:34.586Z,22.20
2022-12-07T03:37:02.274Z,21.50
2022-12-07T03:38:23.190Z,22.88
2022-12-07T03:39:34.584Z,20.85
2022-12-07T03:40:44.830Z,21.42
2022-12-07T03:41:47.263Z,20.25
2022-12-07T03:42:50.844Z,19.77
2022-12-07T03:43:56.206Z,22.83
2022-12-07T03:46:16.173Z,25.65
2022-12-07T03:47:36.228Z,25.55
2022-12-07T03:48:44.142Z,22.67
2022-12-07T03:50:10.737Z,23.52
2022-12-07T03:51:39.673Z,24.58
2022-12-07T03:52:46.375Z,21.27
2022-12-07T03:54:12.264Z,23.73
2022-12-07T03:55:32.056Z,22.90
2022-12-07T03:56:35.389Z,24.35
2022-12-07T03:58:43.172Z,21.55
2022-12-07T03:59:47.019Z,20.10
2022-12-07T04:00:51.303Z,22.40
2022-12-07T04:02:57.996Z,22.65
2022-12-07T04:04:00.620Z,26.08
2022-12-07T04:05:04.025Z,24.65
2022-12-07T04:06:09.304Z,26.77
2022-12-07T04:07:12.076Z,26.42
2022-12-07T04:08:14.573Z,22.75
2022-12-07T04:09:17.888Z,25.83
2022-12-07T04:10:20.740Z,29.02
2022-12-07T04:11:23.127Z,27.95
2022-12-07T04:12:25.426Z,24.92
2022-12-07T04:13:27.866Z,28.80
2022-12-07T04:14:30.208Z,27.35
2022-12-07T04:15:32.553Z,31.75
2022-12-07T04:16:37.363Z,26.70
2022-12-07T04:17:44.805Z,29.27
2022-12-07T04:18:47.643Z,28.92
2022-12-07T04:19:50.296Z,25.23
2022-12-07T04:20:52.680Z,28.63
2022-12-07T04:22:02.942Z,26.13
2022-12-07T04:23:05.277Z,28.23
2022-12-07T04:24:07.628Z,30.73
2022-12-07T04:25:10.623Z,33.90
2022-12-07T04:26:13.149Z,29.98
2022-12-07T04:27:15.424Z,31.52
2022-12-07T04:28:18.081Z,44.13
2022-12-07T04:29:20.835Z,43.45
2022-12-07T04:30:23.411Z,43.55
2022-12-07T04:31:25.764Z,40.88
2022-12-07T04:32:28.222Z,43.47
2022-12-07T04:33:30.593Z,38.20
2022-12-07T04:34:32.999Z,30.83
2022-12-07T04:35:35.487Z,30.95
2022-12-07T04:36:38.612Z,27.58
2022-12-07T04:37:41.025Z,31.90
2022-12-07T04:38:43.393Z,27.35
2022-12-07T04:39:48.924Z,32.33
2022-12-07T04:40:51.490Z,32.00
2022-12-07T04:41:54.363Z,30.63
2022-12-07T04:43:02.632Z,30.50
2022-12-07T04:44:08.523Z,29.02
2022-12-07T04:45:11.038Z,31.00
2022-12-07T04:46:13.385Z,32.03
2022-12-07T04:47:15.876Z,33.72
2022-12-07T04:48:18.423Z,31.65
2022-12-07T04:49:21.178Z,26.98
2022-12-07T04:50:23.557Z,30.00
2022-12-07T04:51:30.813Z,33.72
2022-12-07T04:52:33.212Z,34.47
2022-12-07T04:53:35.661Z,34.20
2022-12-07T04:54:38.053Z,31.65
2022-12-07T04:55:40.247Z,35.88
2022-12-07T04:56:42.742Z,35.53
2022-12-07T04:57:45.041Z,36.00
2022-12-07T04:58:48.726Z,32.53
2022-12-07T04:59:50.975Z,33.60
2022-12-07T05:00:56.448Z,31.65
2022-12-07T05:01:59.418Z,32.42
2022-12-07T05:03:01.788Z,31.20
2022-12-07T05:04:04.616Z,32.13
2022-12-07T05:05:07.303Z,35.30
2022-12-07T05:06:13.834Z,32.78
2022-12-07T05:07:16.397Z,30.95
2022-12-07T05:08:18.831Z,34.90
2022-12-07T05:09:21.412Z,30.42
2022-12-07T05:10:24.074Z,27.85
2022-12-07T05:11:41.630Z,31.98
2022-12-07T05:12:43.993Z,32.25
2022-12-07T05:13:46.274Z,34.67
2022-12-07T05:14:48.559Z,35.28
2022-12-07T05:15:51.414Z,33.53
2022-12-07T05:16:54.688Z,34.03
2022-12-07T05:17:57.034Z,29.40
2022-12-07T05:18:59.967Z,35.55
2022-12-07T05:20:02.654Z,32.67
2022-12-07T05:21:05.513Z,36.83
2022-12-07T05:22:07.896Z,35.30
2022-12-07T05:23:10.407Z,35.75
2022-12-07T05:24:15.126Z,33.58
2022-12-07T05:25:17.561Z,36.40
2022-12-07T05:26:19.928Z,31.33
2022-12-07T05:27:22.511Z,29.40
2022-12-07T05:28:24.870Z,33.00
2022-12-07T05:29:27.186Z,35.08
2022-12-07T05:30:29.789Z,34.20
2022-12-07T05:31:32.611Z,37.20
2022-12-07T05:32:35.035Z,29.52
2022-12-07T05:33:37.796Z,30.27
2022-12-07T05:34:40.098Z,33.47
2022-12-07T05:35:43.057Z,33.13
2022-12-07T05:36:45.530Z,35.47
2022-12-07T05:37:48.109Z,33.58
2022-12-07T05:38:50.753Z,33.50
2022-12-07T05:39:53.376Z,32.92
2022-12-07T05:40:55.712Z,36.80
2022-12-07T05:42:15.717Z,35.38
2022-12-07T05:43:17.980Z,32.72
2022-12-07T05:44:20.276Z,32.08
2022-12-07T05:45:22.649Z,35.53
2022-12-07T05:46:25.079Z,33.15
2022-12-07T05:47:27.737Z,31.17
2022-12-07T05:48:30.174Z,33.65
2022-12-07T05:49:32.431Z,35.40
2022-12-07T05:50:34.909Z,32.22
2022-12-07T05:51:37.278Z,34.88
2022-12-07T05:52:39.708Z,35.65
2022-12-07T05:53:42.038Z,35.30
2022-12-07T05:54:44.461Z,39.78
2022-12-07T05:55:46.838Z,37.63
2022-12-07T05:56:49.593Z,38.17
2022-12-07T05:58:10.390Z,47.70
2022-12-07T05:59:25.344Z,45.47
2022-12-07T06:00:27.555Z,48.97
2022-12-07T06:01:29.946Z,46.58
2022-12-07T06:02:32.364Z,47.25
2022-12-07T06:03:34.941Z,46.47
2022-12-07T06:04:43.007Z,49.05
2022-12-07T06:05:45.362Z,48.00
2022-12-07T06:06:47.850Z,43.50
2022-12-07T06:07:50.268Z,49.60
2022-12-07T06:08:52.717Z,41.95
2022-12-07T06:09:55.089Z,44.70
2022-12-07T06:11:15.807Z,47.15
2022-12-07T06:12:36.178Z,46.67
2022-12-07T06:13:41.188Z,54.10
2022-12-07T06:14:47.760Z,50.53
2022-12-07T06:15:50.044Z,49.15
2022-12-07T06:16:53.592Z,48.17
2022-12-07T06:18:58.834Z,46.40
2022-12-07T06:20:01.318Z,47.97
2022-12-07T06:21:03.987Z,42.75
2022-12-07T06:22:06.929Z,43.30
2022-12-07T06:23:09.957Z,39.40
2022-12-07T06:24:13.733Z,45.50
2022-12-07T06:25:16.171Z,41.10
2022-12-07T06:26:18.465Z,43.95
2022-12-07T06:27:21.114Z,42.72
2022-12-07T06:28:23.479Z,41.83
2022-12-07T06:29:25.783Z,42.60
2022-12-07T06:30:28.243Z,37.92
2022-12-07T06:31:30.612Z,41.70
2022-12-07T06:32:33.975Z,40.72
2022-12-07T06:33:36.406Z,38.60
2022-12-07T06:34:39.013Z,40.35
2022-12-07T06:35:41.342Z,37.70
2022-12-07T06:36:43.934Z,43.85
2022-12-07T06:37:46.346Z,39.55
2022-12-07T06:38:48.694Z,40.72
2022-12-07T06:39:51.036Z,40.13
2022-12-07T06:40:53.307Z,39.35
2022-12-07T06:41:56.117Z,39.92
2022-12-07T06:42:58.530Z,38.92
2022-12-07T06:44:00.838Z,41.00
2022-12-07T06:45:03.184Z,40.33
2022-12-07T06:46:05.653Z,41.58
2022-12-07T06:49:33.544Z,31.25
2022-12-07T06:50:35.749Z,36.78
2022-12-07T06:51:42.349Z,41.08
2022-12-07T06:52:44.614Z,35.22
2022-12-07T06:53:46.812Z,40.35
2022-12-07T06:54:49.290Z,38.78
2022-12-07T06:55:52.428Z,41.00
2022-12-07T06:56:55.149Z,39.80
2022-12-07T06:57:57.589Z,35.42
2022-12-07T06:59:00.108Z,40.90
2022-12-07T07:00:03.640Z,34.42
2022-12-07T07:01:19.120Z,37.60
2022-12-07T07:02:21.795Z,35.13
2022-12-07T07:03:24.527Z,34.90
2022-12-07T07:04:29.570Z,37.35
2022-12-07T07:05:31.922Z,36.15
2022-12-07T07:06:34.371Z,35.15
2022-12-07T07:07:51.661Z,32.53
2022-12-07T07:08:59.260Z,35.88
2022-12-07T07:10:02.176Z,36.35
2022-12-07T07:11:05.669Z,37.45
2022-12-07T07:12:08.146Z,35.67
2022-12-07T07:13:10.517Z,33.13
2022-12-07T07:14:13.116Z,36.95
2022-12-07T07:15:15.613Z,39.78
2022-12-07T07:16:18.147Z,39.20
2022-12-07T07:17:20.921Z,35.53
2022-12-07T07:18:23.720Z,36.17
2022-12-07T07:19:26.213Z,35.05
2022-12-07T07:20:29.174Z,33.63
2022-12-07T07:21:31.545Z,40.25
2022-12-07T07:22:33.978Z,40.75
2022-12-07T07:23:36.398Z,40.42
2022-12-07T07:24:39.457Z,42.92
2022-12-07T07:25:41.887Z,40.67
2022-12-07T07:26:44.460Z,42.42
2022-12-07T07:27:47.223Z,41.45
2022-12-07T07:28:49.663Z,41.40
2022-12-07T07:29:52.132Z,36.88
2022-12-07T07:30:54.622Z,36.67
2022-12-07T07:32:03.261Z,39.42
2022-12-07T07:33:08.874Z,39.55
2022-12-07T07:34:11.396Z,39.33
2022-12-07T07:35:15.275Z,34.90
2022-12-07T07:36:17.641Z,40.15
2022-12-07T07:37:22.103Z,36.13
2022-12-07T07:38:24.733Z,39.58
2022-12-07T07:39:27.169Z,41.00
2022-12-07T07:40:30.469Z,41.35
2022-12-07T07:41:33.449Z,36.33
2022-12-07T07:42:36.666Z,35.58
2022-12-07T07:43:39.059Z,41.33
2022-12-07T07:44:41.380Z,41.13
2022-12-07T07:45:44.133Z,37.35
2022-12-07T07:46:46.555Z,41.88
2022-12-07T07:47:49.419Z,37.70
2022-12-07T07:48:51.769Z,37.92
2022-12-07T07:49:54.241Z,40.78
2022-12-07T07:50:56.682Z,41.80
2022-12-07T07:51:59.228Z,43.72
2022-12-07T07:53:01.550Z,33.58
2022-12-07T07:54:04.548Z,42.20
2022-12-07T07:55:10.866Z,42.20
2022-12-07T07:56:13.362Z,38.45
2022-12-07T07:57:17.172Z,37.00
2022-12-07T07:58:19.681Z,42.78
2022-12-07T07:59:22.181Z,37.53
2022-12-07T08:00:24.715Z,41.50
2022-12-07T08:01:27.241Z,32.47
2022-12-07T08:02:30.785Z,40.80
2022-12-07T08:03:33.942Z,38.65
2022-12-07T08:04:37.354Z,40.08
2022-12-07T08:05:42.308Z,32.40
2022-12-07T08:06:45.501Z,38.22
2022-12-07T08:07:48.256Z,35.30
2022-12-07T08:08:51.015Z,36.53
2022-12-07T08:09:53.700Z,37.13
2022-12-07T08:10:55.981Z,37.30
2022-12-07T08:11:59.018Z,37.20
2022-12-07T08:13:14.729Z,32.80
2022-12-07T08:14:17.224Z,33.25
2022-12-07T08:15:19.513Z,36.67
2022-12-07T08:16:22.079Z,38.67
2022-12-07T08:17:24.589Z,42.10
2022-12-07T08:18:26.845Z,38.92
2022-12-07T08:19:29.334Z,42.53
2022-12-07T08:20:34.104Z,44.35
2022-12-07T08:21:38.542Z,38.45
2022-12-07T08:22:41.813Z,37.13
2022-12-07T08:23:44.661Z,41.75
2022-12-07T08:24:47.921Z,40.63
2022-12-07T08:25:50.214Z,41.25
2022-12-07T08:26:52.679Z,39.75
2022-12-07T08:27:55.358Z,39.03
2022-12-07T08:28:57.886Z,42.10
2022-12-07T08:30:04.150Z,38.67
2022-12-07T08:31:16.901Z,34.35
2022-12-07T08:32:19.245Z,36.28
2022-12-07T08:33:23.583Z,45.38
2022-12-07T08:34:26.069Z,35.55
2022-12-07T08:35:28.519Z,38.55
2022-12-07T08:36:31.069Z,41.08
2022-12-07T08:37:34.174Z,36.30
2022-12-07T08:38:37.621Z,40.92
2022-12-07T08:39:39.901Z,37.33
2022-12-07T08:40:42.176Z,34.83
2022-12-07T08:41:44.613Z,25.45
2022-12-07T08:42:51.405Z,38.35
2022-12-07T08:43:53.836Z,30.63
2022-12-07T08:44:56.281Z,32.80
2022-12-07T08:46:04.562Z,29.00
2022-12-07T08:47:10.209Z,32.10
2022-12-07T08:48:15.862Z,32.60
2022-12-07T08:49:32.473Z,31.63
2022-12-07T08:50:37.180Z,29.02
2022-12-07T08:51:40.723Z,28.33
2022-12-07T08:52:46.204Z,29.65
2022-12-07T08:53:49.633Z,29.35
2022-12-07T08:54:52.888Z,30.77
2022-12-07T08:55:55.756Z,30.80
2022-12-07T08:56:59.818Z,34.90
2022-12-07T08:58:04.214Z,31.33
2022-12-07T08:59:07.371Z,35.55
2022-12-07T09:00:10.481Z,32.50
2022-12-07T09:01:13.108Z,32.47
2022-12-07T09:02:15.609Z,33.30
2022-12-07T09:03:17.997Z,31.42
2022-12-07T09:04:21.783Z,31.35
2022-12-07T09:05:27.927Z,30.67
2022-12-07T09:06:30.870Z,32.75
2022-12-07T09:07:35.512Z,29.38
2022-12-07T09:08:43.541Z,29.40
2022-12-07T09:09:45.907Z,30.38
2022-12-07T09:10:48.861Z,29.67
2022-12-07T09:11:51.888Z,27.05
2022-12-07T09:12:54.538Z,24.70
2022-12-07T09:13:57.444Z,30.40
2022-12-07T09:15:01.711Z,27.40
2022-12-07T09:16:04.380Z,29.23
2022-12-07T09:17:08.767Z,28.70
2022-12-07T09:18:11.659Z,33.95
2022-12-07T09:19:14.164Z,32.92
2022-12-07T09:20:16.615Z,32.38
2022-12-07T09:21:18.947Z,33.72
2022-12-07T09:22:21.351Z,28.13
2022-12-07T09:23:23.933Z,29.92
2022-12-07T09:24:26.468Z,31.55
2022-12-07T09:25:29.191Z,33.60
2022-12-07T09:26:31.679Z,29.48
2022-12-07T09:27:34.617Z,33.17
2022-12-07T09:28:37.118Z,31.52
2022-12-07T09:29:39.510Z,30.33
2022-12-07T09:31:21.481Z,34.17
2022-12-07T09:32:11.946Z,31.00
2022-12-07T09:33:15.260Z,25.73
2022-12-07T09:34:17.613Z,26.85
2022-12-07T09:35:19.957Z,24.67
2022-12-07T09:36:30.593Z,31.02
2022-12-07T09:38:38.722Z,27.58
2022-12-07T09:39:47.953Z,25.95
2022-12-07T09:40:52.479Z,26.27
2022-12-07T09:41:55.020Z,31.60
2022-12-07T09:42:57.456Z,29.60
2022-12-07T09:44:09.935Z,28.23
2022-12-07T09:45:24.487Z,27.25
2022-12-07T09:46:38.745Z,27.85
2022-12-07T09:47:42.842Z,25.23
2022-12-07T09:48:50.768Z,29.60
2022-12-07T09:50:02.548Z,29.50
2022-12-07T09:51:23.193Z,24.75
2022-12-07T09:52:31.848Z,21.45
2022-12-07T09:53:39.780Z,24.15
2022-12-07T09:54:47.859Z,26.45
2022-12-07T09:55:50.199Z,26.08
2022-12-07T09:56:52.933Z,23.45
2022-12-07T09:57:56.644Z,20.30
2022-12-07T09:59:04.807Z,24.70
2022-12-07T10:00:19.480Z,26.58
2022-12-07T10:01:23.044Z,24.95
2022-12-07T10:02:44.095Z,23.95
2022-12-07T10:03:56.228Z,21.73
2022-12-07T10:04:59.412Z,22.27
2022-12-07T10:06:01.937Z,27.52
2022-12-07T10:07:04.377Z,22.70
2022-12-07T10:08:09.085Z,22.27
2022-12-07T10:09:13.573Z,21.70
2022-12-07T10:10:39.842Z,22.00
2022-12-07T10:12:11.183Z,25.55
2022-12-07T10:13:15.838Z,23.95
2022-12-07T10:14:18.395Z,24.98
2022-12-07T10:15:20.964Z,23.83
2022-12-07T10:16:33.041Z,21.52
2022-12-07T10:17:48.586Z,24.85
2022-12-07T10:18:51.471Z,23.40
2022-12-07T10:20:10.263Z,23.25
2022-12-07T10:21:24.895Z,22.52
2022-12-07T10:22:31.742Z,23.67
2022-12-07T10:23:35.860Z,26.73
2022-12-07T10:24:42.175Z,23.10
2022-12-07T10:25:45.975Z,23.75
2022-12-07T10:26:48.750Z,22.83
2022-12-07T10:28:13.232Z,26.58
2022-12-07T10:29:20.989Z,24.67
2022-12-07T10:30:23.456Z,26.90
2022-12-07T10:31:25.888Z,21.35
2022-12-07T10:32:35.111Z,22.40
2022-12-07T10:33:39.871Z,26.17
2022-12-07T10:34:47.408Z,24.55
2022-12-07T10:35:52.957Z,29.10
2022-12-07T10:37:10.570Z,27.80
2022-12-07T10:38:18.877Z,25.50
2022-12-07T10:39:23.946Z,25.05
2022-12-07T10:40:32.413Z,27.95
2022-12-07T10:41:34.795Z,27.35
2022-12-07T10:42:37.084Z,30.13
2022-12-07T10:43:48.490Z,27.83
2022-12-07T10:45:08.698Z,25.83
2022-12-07T10:46:39.069Z,28.90
2022-12-07T10:47:56.944Z,28.40
2022-12-07T10:49:17.920Z,29.80
2022-12-07T10:50:29.598Z,27.48
2022-12-07T10:51:45.290Z,29.15
2022-12-07T10:52:58.511Z,26.67
2022-12-07T10:54:24.422Z,26.02
2022-12-07T10:55:41.263Z,23.67
2022-12-07T10:56:58.271Z,23.23
2022-12-07T10:58:37.811Z,26.27
2022-12-07T10:59:53.295Z,26.25
2022-12-07T11:01:18.417Z,29.98
2022-12-07T11:02:48.380Z,25.23
2022-12-07T11:04:24.535Z,25.13
2022-12-07T11:05:45.485Z,25.73
2022-12-07T11:07:07.732Z,27.10
2022-12-07T11:08:23.873Z,25.80
2022-12-07T11:11:34.658Z,22.45
2022-12-07T11:12:55.261Z,23.48
2022-12-07T11:14:27.917Z,22.10
2022-12-07T11:15:41.447Z,27.40
2022-12-07T11:17:10.152Z,24.48
2022-12-07T11:18:12.874Z,23.63
2022-12-07T11:19:36.865Z,20.83
2022-12-07T11:21:26.962Z,23.13
2022-12-07T11:22:47.959Z,17.48
2022-12-07T11:23:53.414Z,22.42
2022-12-07T11:25:15.024Z,23.52
2022-12-07T11:26:20.239Z,20.30
2022-12-07T11:27:49.526Z,22.77
2022-12-07T11:29:22.660Z,21.42
2022-12-07T11:31:01.786Z,22.42
2022-12-07T11:32:25.073Z,20.70
2022-12-07T11:33:30.409Z,20.35
2022-12-07T11:34:52.849Z,20.00
2022-12-07T11:36:28.459Z,19.92
2022-12-07T11:38:49.809Z,19.23
2022-12-07T11:39:56.456Z,22.02
2022-12-07T11:41:14.091Z,21.20
2022-12-07T11:42:38.831Z,20.17
2022-12-07T11:43:50.807Z,17.42
2022-12-07T11:45:20.153Z,21.30
2022-12-07T11:46:30.294Z,19.55
2022-12-07T11:47:57.810Z,21.40
2022-12-07T11:49:12.627Z,19.88
2022-12-07T11:50:34.047Z,16.20
2022-12-07T11:51:40.464Z,18.45
2022-12-07T11:52:49.880Z,21.92
2022-12-07T11:54:04.250Z,22.08
2022-12-07T11:55:15.127Z,20.95
2022-12-07T11:56:20.581Z,23.40
2022-12-07T11:57:40.105Z,21.42
2022-12-07T11:58:48.914Z,20.05
2022-12-07T12:00:00.809Z,20.20
2022-12-07T12:01:18.084Z,23.35
2022-12-07T12:02:28.025Z,19.15
2022-12-07T12:03:35.808Z,18.67
2022-12-07T12:04:57.173Z,18.90
2022-12-07T12:05:59.591Z,17.27
2022-12-07T12:10:43.119Z,21.83
2022-12-07T12:15:24.779Z,20.67
2022-12-07T12:17:02.687Z,18.10
2022-12-07T12:18:30.334Z,19.23
2022-12-07T12:19:56.487Z,18.58
2022-12-07T12:21:02.440Z,15.90
2022-12-07T12:22:18.694Z,17.88
2022-12-07T12:23:28.543Z,16.52
2022-12-07T12:24:37.628Z,22.52
2022-12-07T12:25:46.026Z,18.27
2022-12-07T12:26:58.844Z,15.85
2022-12-07T12:28:01.610Z,17.52
2022-12-07T12:29:19.507Z,16.40
2022-12-07T12:30:41.719Z,18.25
2022-12-07T12:31:45.745Z,19.55
2022-12-07T12:32:48.504Z,17.50
2022-12-07T12:33:53.566Z,18.42
2022-12-07T12:35:03.870Z,19.65
2022-12-07T12:36:44.140Z,18.02
2022-12-07T12:37:48.421Z,16.73
2022-12-07T12:38:51.009Z,19.13
2022-12-07T12:40:15.748Z,22.52
2022-12-07T12:41:50.716Z,17.88
2022-12-07T12:42:57.237Z,21.52
2022-12-07T12:43:59.860Z,15.68
2022-12-07T12:45:25.711Z,23.13
2022-12-07T12:46:31.524Z,22.08
2022-12-07T12:48:31.709Z,15.75
2022-12-07T12:49:38.611Z,21.25
2022-12-07T12:50:40.942Z,21.20
2022-12-07T12:51:44.707Z,27.40
2022-12-07T12:52:53.814Z,20.30
2022-12-07T12:54:06.324Z,18.20
2022-12-07T12:55:08.645Z,20.83
2022-12-07T12:56:24.019Z,19.67
2022-12-07T12:57:32.156Z,21.40
2022-12-07T12:58:40.084Z,18.33
2022-12-07T12:59:48.338Z,17.65
2022-12-07T13:01:28.947Z,17.35
2022-12-07T13:02:40.653Z,15.43
2022-12-07T13:03:54.638Z,13.00
2022-12-07T13:05:03.210Z,14.88
2022-12-07T13:06:21.045Z,12.18
2022-12-07T13:07:48.659Z,19.17
2022-12-07T13:08:54.605Z,16.25
2022-12-07T13:09:57.071Z,17.77
2022-12-07T13:11:26.491Z,19.10
2022-12-07T13:12:28.946Z,17.55
2022-12-07T13:13:33.951Z,18.95
2022-12-07T13:14:41.787Z,17.67
2022-12-07T13:15:45.557Z,19.58
2022-12-07T13:17:59.614Z,16.52
2022-12-07T13:19:02.068Z,15.80
2022-12-07T13:20:08.914Z,16.92
2022-12-07T13:21:12.956Z,16.02
2022-12-07T13:22:36.033Z,15.82
2022-12-07T13:23:47.477Z,14.32
2022-12-07T13:24:50.023Z,16.55
2022-12-07T13:26:05.622Z,14.73
2022-12-07T13:27:09.207Z,16.77
2022-12-07T13:28:23.207Z,15.70
2022-12-07T13:29:26.112Z,13.95
2022-12-07T13:30:30.376Z,15.65
2022-12-07T13:32:37.093Z,15.38
2022-12-07T13:34:43.051Z,13.68
2022-12-07T13:35:45.269Z,17.95
2022-12-07T13:36:47.662Z,14.45
2022-12-07T13:37:50.164Z,16.42
2022-12-07T13:39:00.886Z,17.35
2022-12-07T13:40:19.645Z,15.35
2022-12-07T13:41:24.903Z,16.27
2022-12-07T13:42:32.811Z,14.93
2022-12-07T13:43:44.560Z,17.38
2022-12-07T13:44:46.971Z,14.95
2022-12-07T13:45:58.129Z,16.38
2022-12-07T13:47:20.820Z,14.05
2022-12-07T13:48:31.388Z,15.73
2022-12-07T13:49:39.291Z,14.65
2022-12-07T13:50:41.663Z,14.27
2022-12-07T13:51:45.787Z,14.63
2022-12-07T13:52:50.084Z,15.05
2022-12-07T13:53:55.677Z,16.10
2022-12-07T13:55:02.244Z,14.52
2022-12-07T13:56:05.598Z,16.67
2022-12-07T13:57:15.492Z,17.67
2022-12-07T13:58:18.725Z,16.15
2022-12-07T13:59:26.232Z,15.05
2022-12-07T14:00:30.906Z,17.38
2022-12-07T14:01:33.784Z,15.43
2022-12-07T14:02:41.212Z,17.75
2022-12-07T14:03:46.770Z,16.15
2022-12-07T14:04:51.570Z,18.98
2022-12-07T14:06:06.633Z,16.30
2022-12-07T14:07:29.815Z,17.13
2022-12-07T14:08:32.998Z,15.95
2022-12-07T14:09:35.320Z,21.88
2022-12-07T14:11:04.053Z,20.63
2022-12-07T14:12:07.820Z,18.38
2022-12-07T14:13:42.293Z,18.45
2022-12-07T14:14:52.835Z,18.95
2022-12-07T14:17:13.969Z,17.27
2022-12-07T14:18:37.190Z,17.00
2022-12-07T14:19:48.739Z,19.73
2022-12-07T14:20:51.857Z,24.65
2022-12-07T14:22:19.661Z,22.90
2022-12-07T14:23:25.810Z,24.77
2022-12-07T14:24:28.731Z,22.60
2022-12-07T14:25:33.942Z,28.00
2022-12-07T14:26:36.573Z,24.23
2022-12-07T14:27:39.179Z,27.63
2022-12-07T14:28:43.406Z,24.15
2022-12-07T14:29:45.841Z,24.95
2022-12-07T14:30:48.236Z,27.85
2022-12-07T14:31:50.790Z,24.77
2022-12-07T14:32:58.825Z,26.15
2022-12-07T14:34:01.403Z,24.45
2022-12-07T14:35:21.868Z,24.42
2022-12-07T14:36:24.564Z,24.60
2022-12-07T14:37:28.573Z,27.00
2022-12-07T14:38:30.841Z,24.38
2022-12-07T14:39:33.654Z,25.60
2022-12-07T14:40:36.069Z,26.42
2022-12-07T14:41:53.805Z,26.05
2022-12-07T14:43:02.418Z,24.35
2022-12-07T14:44:32.376Z,23.70
2022-12-07T14:45:35.322Z,20.45
2022-12-07T14:46:38.142Z,20.08
2022-12-07T14:50:26.194Z,20.20
2022-12-07T14:54:30.625Z,18.67
2022-12-07T14:55:33.027Z,22.40
2022-12-07T14:56:35.552Z,23.55
2022-12-07T14:57:38.609Z,20.27
2022-12-07T14:58:41.393Z,19.35
2022-12-07T14:59:45.479Z,21.60
2022-12-07T15:00:48.752Z,20.15